sensor_id;sensor_type;location;lat;lon;timestamp;P1;durP1;ratioP1;P2;durP2;ratioP2
3405;SDS011;10008;48.682;9.016;2023-03-13T00:01:01;10.80;;;5.27;;
3405;SDS011;10008;48.682;9.016;2023-03-13T00:03:35;12.97;;;6.10;;
3405;SDS011;10008;48.682;9.016;2023-03-13T00:06:01;15.90;;;6.20;;
3405;SDS011;10008;48.682;9.016;2023-03-13T00:08:29;15.87;;;6.47;;
3405;SDS011;10008;48.682;9.016;2023-03-13T00:10:55;16.27;;;7.50;;
3405;SDS011;10008;48.682;9.016;2023-03-13T00:13:21;15.87;;;9.30;;
3405;SDS011;10008;48.682;9.016;2023-03-13T00:15:47;13.50;;;7.80;;
3405;SDS011;10008;48.682;9.016;2023-03-13T00:18:12;10.97;;;7.00;;
3405;SDS011;10008;48.682;9.016;2023-03-13T00:20:38;12.93;;;6.57;;
3405;SDS011;10008;48.682;9.016;2023-03-13T00:23:04;11.70;;;5.93;;
3405;SDS011;10008;48.682;9.016;2023-03-13T00:25:30;11.77;;;5.40;;
3405;SDS011;10008;48.682;9.016;2023-03-13T00:27:56;10.77;;;5.17;;
3405;SDS011;10008;48.682;9.016;2023-03-13T00:30:21;9.60;;;4.87;;
3405;SDS011;10008;48.682;9.016;2023-03-13T00:32:47;15.10;;;5.83;;
3405;SDS011;10008;48.682;9.016;2023-03-13T00:35:14;16.83;;;5.20;;
3405;SDS011;10008;48.682;9.016;2023-03-13T00:37:40;9.93;;;5.27;;
3405;SDS011;10008;48.682;9.016;2023-03-13T00:40:08;12.20;;;4.83;;
3405;SDS011;10008;48.682;9.016;2023-03-13T00:42:34;13.57;;;5.20;;
3405;SDS011;10008;48.682;9.016;2023-03-13T00:45:00;9.87;;;4.90;;
3405;SDS011;10008;48.682;9.016;2023-03-13T00:47:26;13.77;;;6.10;;
3405;SDS011;10008;48.682;9.016;2023-03-13T00:49:52;10.10;;;5.30;;
3405;SDS011;10008;48.682;9.016;2023-03-13T00:52:17;9.23;;;4.77;;
3405;SDS011;10008;48.682;9.016;2023-03-13T00:54:43;13.37;;;5.80;;
3405;SDS011;10008;48.682;9.016;2023-03-13T00:57:09;12.30;;;5.40;;
3405;SDS011;10008;48.682;9.016;2023-03-13T00:59:35;10.47;;;6.10;;
3405;SDS011;10008;48.682;9.016;2023-03-13T01:02:00;19.13;;;7.60;;
3405;SDS011;10008;48.682;9.016;2023-03-13T01:04:26;11.03;;;5.17;;
3405;SDS011;10008;48.682;9.016;2023-03-13T01:06:52;8.60;;;4.73;;
3405;SDS011;10008;48.682;9.016;2023-03-13T01:09:17;10.43;;;4.40;;
3405;SDS011;10008;48.682;9.016;2023-03-13T01:11:44;7.07;;;4.23;;
3405;SDS011;10008;48.682;9.016;2023-03-13T01:14:13;9.90;;;5.20;;
3405;SDS011;10008;48.682;9.016;2023-03-13T01:16:40;9.30;;;4.30;;
3405;SDS011;10008;48.682;9.016;2023-03-13T01:19:10;9.53;;;4.50;;
3405;SDS011;10008;48.682;9.016;2023-03-13T01:21:38;8.37;;;4.33;;
3405;SDS011;10008;48.682;9.016;2023-03-13T01:24:04;10.10;;;4.17;;
3405;SDS011;10008;48.682;9.016;2023-03-13T01:26:30;9.80;;;4.30;;
3405;SDS011;10008;48.682;9.016;2023-03-13T01:28:57;8.40;;;4.37;;
3405;SDS011;10008;48.682;9.016;2023-03-13T01:31:28;11.53;;;4.57;;
3405;SDS011;10008;48.682;9.016;2023-03-13T01:33:57;11.03;;;4.67;;
3405;SDS011;10008;48.682;9.016;2023-03-13T01:36:25;10.53;;;4.53;;
3405;SDS011;10008;48.682;9.016;2023-03-13T01:38:53;10.07;;;5.20;;
3405;SDS011;10008;48.682;9.016;2023-03-13T01:41:21;6.50;;;4.20;;
3405;SDS011;10008;48.682;9.016;2023-03-13T01:43:48;7.97;;;4.70;;
3405;SDS011;10008;48.682;9.016;2023-03-13T01:46:16;8.90;;;5.13;;
3405;SDS011;10008;48.682;9.016;2023-03-13T01:49:01;10.00;;;5.37;;
3405;SDS011;10008;48.682;9.016;2023-03-13T01:51:32;7.97;;;5.17;;
3405;SDS011;10008;48.682;9.016;2023-03-13T01:56:42;8.80;;;6.40;;
3405;SDS011;10008;48.682;9.016;2023-03-13T01:59:10;9.37;;;4.83;;
3405;SDS011;10008;48.682;9.016;2023-03-13T02:01:40;8.33;;;5.70;;
3405;SDS011;10008;48.682;9.016;2023-03-13T02:04:08;8.53;;;5.53;;
3405;SDS011;10008;48.682;9.016;2023-03-13T02:06:34;8.83;;;5.40;;
3405;SDS011;10008;48.682;9.016;2023-03-13T02:09:03;14.20;;;6.10;;
3405;SDS011;10008;48.682;9.016;2023-03-13T02:14:08;6.60;;;4.60;;
3405;SDS011;10008;48.682;9.016;2023-03-13T02:16:34;8.10;;;5.30;;
3405;SDS011;10008;48.682;9.016;2023-03-13T02:19:05;6.30;;;4.53;;
3405;SDS011;10008;48.682;9.016;2023-03-13T02:22:03;8.47;;;4.60;;
3405;SDS011;10008;48.682;9.016;2023-03-13T02:27:18;7.50;;;4.37;;
3405;SDS011;10008;48.682;9.016;2023-03-13T02:29:45;6.43;;;4.60;;
3405;SDS011;10008;48.682;9.016;2023-03-13T02:32:11;5.73;;;4.50;;
3405;SDS011;10008;48.682;9.016;2023-03-13T02:34:39;9.23;;;5.10;;
3405;SDS011;10008;48.682;9.016;2023-03-13T02:37:08;6.53;;;4.03;;
3405;SDS011;10008;48.682;9.016;2023-03-13T02:39:38;7.47;;;4.80;;
3405;SDS011;10008;48.682;9.016;2023-03-13T02:42:10;7.83;;;4.93;;
3405;SDS011;10008;48.682;9.016;2023-03-13T02:44:38;7.83;;;5.00;;
3405;SDS011;10008;48.682;9.016;2023-03-13T02:47:06;8.53;;;4.80;;
3405;SDS011;10008;48.682;9.016;2023-03-13T02:49:35;6.70;;;4.40;;
3405;SDS011;10008;48.682;9.016;2023-03-13T02:52:08;6.93;;;4.20;;
3405;SDS011;10008;48.682;9.016;2023-03-13T02:54:42;8.97;;;3.90;;
3405;SDS011;10008;48.682;9.016;2023-03-13T02:57:11;5.70;;;3.60;;
3405;SDS011;10008;48.682;9.016;2023-03-13T02:59:38;6.63;;;3.60;;
3405;SDS011;10008;48.682;9.016;2023-03-13T03:02:04;6.30;;;3.33;;
3405;SDS011;10008;48.682;9.016;2023-03-13T03:04:30;8.37;;;3.60;;
3405;SDS011;10008;48.682;9.016;2023-03-13T03:06:56;8.83;;;3.60;;
3405;SDS011;10008;48.682;9.016;2023-03-13T03:09:22;5.03;;;3.20;;
3405;SDS011;10008;48.682;9.016;2023-03-13T03:11:52;5.60;;;3.07;;
3405;SDS011;10008;48.682;9.016;2023-03-13T03:14:18;7.23;;;3.70;;
3405;SDS011;10008;48.682;9.016;2023-03-13T03:16:46;5.50;;;3.57;;
3405;SDS011;10008;48.682;9.016;2023-03-13T03:19:11;8.50;;;3.17;;
3405;SDS011;10008;48.682;9.016;2023-03-13T03:21:37;12.60;;;3.37;;
3405;SDS011;10008;48.682;9.016;2023-03-13T03:24:03;5.60;;;3.00;;
3405;SDS011;10008;48.682;9.016;2023-03-13T03:26:30;6.03;;;3.03;;
3405;SDS011;10008;48.682;9.016;2023-03-13T03:28:56;5.20;;;3.07;;
3405;SDS011;10008;48.682;9.016;2023-03-13T03:31:21;4.20;;;2.63;;
3405;SDS011;10008;48.682;9.016;2023-03-13T03:33:48;5.53;;;3.00;;
3405;SDS011;10008;48.682;9.016;2023-03-13T03:36:19;6.63;;;3.27;;
3405;SDS011;10008;48.682;9.016;2023-03-13T03:38:47;6.77;;;3.20;;
3405;SDS011;10008;48.682;9.016;2023-03-13T03:41:16;5.67;;;2.60;;
3405;SDS011;10008;48.682;9.016;2023-03-13T03:43:43;5.87;;;2.57;;
3405;SDS011;10008;48.682;9.016;2023-03-13T03:46:12;5.43;;;2.00;;
3405;SDS011;10008;48.682;9.016;2023-03-13T03:48:39;7.10;;;2.00;;
3405;SDS011;10008;48.682;9.016;2023-03-13T03:51:07;5.27;;;2.00;;
3405;SDS011;10008;48.682;9.016;2023-03-13T03:53:36;3.73;;;1.70;;
3405;SDS011;10008;48.682;9.016;2023-03-13T03:56:02;4.17;;;1.77;;
3405;SDS011;10008;48.682;9.016;2023-03-13T03:58:28;3.80;;;1.80;;
3405;SDS011;10008;48.682;9.016;2023-03-13T04:01:04;3.93;;;1.70;;
3405;SDS011;10008;48.682;9.016;2023-03-13T04:03:30;4.23;;;1.50;;
3405;SDS011;10008;48.682;9.016;2023-03-13T04:05:56;4.73;;;1.70;;
3405;SDS011;10008;48.682;9.016;2023-03-13T04:08:23;4.43;;;1.70;;
3405;SDS011;10008;48.682;9.016;2023-03-13T04:10:49;4.20;;;1.50;;
3405;SDS011;10008;48.682;9.016;2023-03-13T04:13:18;3.80;;;1.60;;
3405;SDS011;10008;48.682;9.016;2023-03-13T04:15:44;3.40;;;1.20;;
3405;SDS011;10008;48.682;9.016;2023-03-13T04:18:10;5.40;;;1.57;;
3405;SDS011;10008;48.682;9.016;2023-03-13T04:20:36;3.83;;;1.60;;
3405;SDS011;10008;48.682;9.016;2023-03-13T04:23:02;5.40;;;1.40;;
3405;SDS011;10008;48.682;9.016;2023-03-13T04:25:28;3.80;;;1.53;;
3405;SDS011;10008;48.682;9.016;2023-03-13T04:27:57;4.27;;;1.33;;
3405;SDS011;10008;48.682;9.016;2023-03-13T04:30:26;5.23;;;1.77;;
3405;SDS011;10008;48.682;9.016;2023-03-13T04:33:22;4.60;;;1.30;;
3405;SDS011;10008;48.682;9.016;2023-03-13T04:36:01;3.33;;;1.20;;
3405;SDS011;10008;48.682;9.016;2023-03-13T04:38:51;3.70;;;1.07;;
3405;SDS011;10008;48.682;9.016;2023-03-13T04:41:35;4.33;;;1.20;;
3405;SDS011;10008;48.682;9.016;2023-03-13T04:44:12;3.40;;;1.20;;
3405;SDS011;10008;48.682;9.016;2023-03-13T04:46:55;3.40;;;1.30;;
3405;SDS011;10008;48.682;9.016;2023-03-13T04:49:41;3.70;;;1.40;;
3405;SDS011;10008;48.682;9.016;2023-03-13T04:52:18;4.20;;;1.20;;
3405;SDS011;10008;48.682;9.016;2023-03-13T04:55:19;3.57;;;1.07;;
3405;SDS011;10008;48.682;9.016;2023-03-13T04:57:55;3.50;;;1.27;;
3405;SDS011;10008;48.682;9.016;2023-03-13T05:00:34;4.63;;;1.00;;
3405;SDS011;10008;48.682;9.016;2023-03-13T05:03:28;3.10;;;0.90;;
3405;SDS011;10008;48.682;9.016;2023-03-13T05:06:06;4.87;;;1.37;;
3405;SDS011;10008;48.682;9.016;2023-03-13T05:08:50;4.43;;;1.43;;
3405;SDS011;10008;48.682;9.016;2023-03-13T05:11:47;3.70;;;1.00;;
3405;SDS011;10008;48.682;9.016;2023-03-13T05:14:34;3.93;;;1.00;;
3405;SDS011;10008;48.682;9.016;2023-03-13T05:17:29;3.10;;;1.00;;
3405;SDS011;10008;48.682;9.016;2023-03-13T05:20:13;4.33;;;1.10;;
3405;SDS011;10008;48.682;9.016;2023-03-13T05:22:58;3.63;;;1.30;;
3405;SDS011;10008;48.682;9.016;2023-03-13T05:25:40;3.27;;;1.20;;
3405;SDS011;10008;48.682;9.016;2023-03-13T05:28:08;3.70;;;1.40;;
3405;SDS011;10008;48.682;9.016;2023-03-13T05:30:54;2.77;;;1.00;;
3405;SDS011;10008;48.682;9.016;2023-03-13T05:33:35;2.87;;;1.00;;
3405;SDS011;10008;48.682;9.016;2023-03-13T05:36:21;4.27;;;1.30;;
3405;SDS011;10008;48.682;9.016;2023-03-13T05:39:24;3.40;;;1.30;;
3405;SDS011;10008;48.682;9.016;2023-03-13T05:42:11;3.90;;;1.30;;
3405;SDS011;10008;48.682;9.016;2023-03-13T05:45:09;3.77;;;1.50;;
3405;SDS011;10008;48.682;9.016;2023-03-13T05:47:54;5.90;;;1.53;;
3405;SDS011;10008;48.682;9.016;2023-03-13T05:50:34;2.70;;;1.20;;
3405;SDS011;10008;48.682;9.016;2023-03-13T05:53:18;3.50;;;1.43;;
3405;SDS011;10008;48.682;9.016;2023-03-13T05:55:55;3.97;;;1.50;;
3405;SDS011;10008;48.682;9.016;2023-03-13T05:58:39;4.00;;;1.70;;
3405;SDS011;10008;48.682;9.016;2023-03-13T06:01:34;3.47;;;1.20;;
3405;SDS011;10008;48.682;9.016;2023-03-13T06:04:08;2.87;;;1.10;;
3405;SDS011;10008;48.682;9.016;2023-03-13T06:06:35;2.93;;;1.30;;
3405;SDS011;10008;48.682;9.016;2023-03-13T06:09:02;3.30;;;1.17;;
3405;SDS011;10008;48.682;9.016;2023-03-13T06:11:30;3.40;;;1.50;;
3405;SDS011;10008;48.682;9.016;2023-03-13T06:13:56;5.30;;;1.43;;
3405;SDS011;10008;48.682;9.016;2023-03-13T06:16:39;3.97;;;1.33;;
3405;SDS011;10008;48.682;9.016;2023-03-13T06:19:16;3.63;;;1.50;;
3405;SDS011;10008;48.682;9.016;2023-03-13T06:21:42;3.00;;;1.20;;
3405;SDS011;10008;48.682;9.016;2023-03-13T06:24:08;4.00;;;1.50;;
3405;SDS011;10008;48.682;9.016;2023-03-13T06:26:34;3.20;;;1.03;;
3405;SDS011;10008;48.682;9.016;2023-03-13T06:29:00;3.00;;;1.20;;
3405;SDS011;10008;48.682;9.016;2023-03-13T06:31:25;2.90;;;1.10;;
3405;SDS011;10008;48.682;9.016;2023-03-13T06:33:52;4.27;;;1.40;;
3405;SDS011;10008;48.682;9.016;2023-03-13T06:36:18;3.50;;;1.30;;
3405;SDS011;10008;48.682;9.016;2023-03-13T06:38:45;3.30;;;1.10;;
3405;SDS011;10008;48.682;9.016;2023-03-13T06:41:10;3.00;;;1.20;;
3405;SDS011;10008;48.682;9.016;2023-03-13T06:43:36;3.57;;;1.40;;
3405;SDS011;10008;48.682;9.016;2023-03-13T06:46:05;3.10;;;1.10;;
3405;SDS011;10008;48.682;9.016;2023-03-13T06:48:31;3.03;;;1.10;;
3405;SDS011;10008;48.682;9.016;2023-03-13T06:50:57;3.33;;;1.27;;
3405;SDS011;10008;48.682;9.016;2023-03-13T06:53:23;3.30;;;1.13;;
3405;SDS011;10008;48.682;9.016;2023-03-13T06:55:49;2.90;;;0.90;;
3405;SDS011;10008;48.682;9.016;2023-03-13T06:58:15;3.37;;;0.97;;
3405;SDS011;10008;48.682;9.016;2023-03-13T07:00:42;3.13;;;1.03;;
3405;SDS011;10008;48.682;9.016;2023-03-13T07:03:08;4.03;;;1.23;;
3405;SDS011;10008;48.682;9.016;2023-03-13T07:05:35;4.10;;;1.13;;
3405;SDS011;10008;48.682;9.016;2023-03-13T07:08:01;2.80;;;1.00;;
3405;SDS011;10008;48.682;9.016;2023-03-13T07:10:27;2.90;;;0.97;;
3405;SDS011;10008;48.682;9.016;2023-03-13T07:12:55;4.60;;;1.10;;
3405;SDS011;10008;48.682;9.016;2023-03-13T07:15:20;3.97;;;1.00;;
3405;SDS011;10008;48.682;9.016;2023-03-13T07:17:47;3.60;;;1.10;;
3405;SDS011;10008;48.682;9.016;2023-03-13T07:20:13;3.70;;;1.20;;
3405;SDS011;10008;48.682;9.016;2023-03-13T07:22:39;2.93;;;0.90;;
3405;SDS011;10008;48.682;9.016;2023-03-13T07:25:05;2.90;;;1.00;;
3405;SDS011;10008;48.682;9.016;2023-03-13T07:27:31;3.43;;;1.20;;
3405;SDS011;10008;48.682;9.016;2023-03-13T07:29:57;3.00;;;1.00;;
3405;SDS011;10008;48.682;9.016;2023-03-13T07:32:23;3.90;;;1.23;;
3405;SDS011;10008;48.682;9.016;2023-03-13T07:34:49;3.27;;;1.33;;
3405;SDS011;10008;48.682;9.016;2023-03-13T07:37:15;3.00;;;1.10;;
3405;SDS011;10008;48.682;9.016;2023-03-13T07:39:42;3.30;;;1.10;;
3405;SDS011;10008;48.682;9.016;2023-03-13T07:42:11;3.20;;;1.30;;
3405;SDS011;10008;48.682;9.016;2023-03-13T07:44:38;3.20;;;1.20;;
3405;SDS011;10008;48.682;9.016;2023-03-13T07:47:04;3.40;;;1.20;;
3405;SDS011;10008;48.682;9.016;2023-03-13T07:49:30;3.30;;;1.43;;
3405;SDS011;10008;48.682;9.016;2023-03-13T07:51:57;4.33;;;1.80;;
3405;SDS011;10008;48.682;9.016;2023-03-13T07:54:23;3.47;;;1.67;;
3405;SDS011;10008;48.682;9.016;2023-03-13T07:56:49;3.37;;;1.50;;
3405;SDS011;10008;48.682;9.016;2023-03-13T07:59:15;3.40;;;1.50;;
3405;SDS011;10008;48.682;9.016;2023-03-13T08:01:41;4.30;;;1.30;;
3405;SDS011;10008;48.682;9.016;2023-03-13T08:04:08;6.20;;;1.97;;
3405;SDS011;10008;48.682;9.016;2023-03-13T08:06:38;4.00;;;1.73;;
3405;SDS011;10008;48.682;9.016;2023-03-13T08:09:05;3.90;;;2.20;;
3405;SDS011;10008;48.682;9.016;2023-03-13T08:11:30;3.20;;;1.60;;
3405;SDS011;10008;48.682;9.016;2023-03-13T08:13:57;3.70;;;1.77;;
3405;SDS011;10008;48.682;9.016;2023-03-13T08:16:24;3.57;;;1.93;;
3405;SDS011;10008;48.682;9.016;2023-03-13T08:18:54;3.77;;;2.13;;
3405;SDS011;10008;48.682;9.016;2023-03-13T08:21:22;4.10;;;2.83;;
3405;SDS011;10008;48.682;9.016;2023-03-13T08:23:59;4.00;;;2.73;;
3405;SDS011;10008;48.682;9.016;2023-03-13T08:26:28;3.90;;;2.73;;
3405;SDS011;10008;48.682;9.016;2023-03-13T08:28:58;5.90;;;3.10;;
3405;SDS011;10008;48.682;9.016;2023-03-13T08:31:30;4.43;;;2.60;;
3405;SDS011;10008;48.682;9.016;2023-03-13T08:33:58;4.60;;;2.40;;
3405;SDS011;10008;48.682;9.016;2023-03-13T08:36:25;4.57;;;2.60;;
3405;SDS011;10008;48.682;9.016;2023-03-13T08:38:53;5.47;;;3.20;;
3405;SDS011;10008;48.682;9.016;2023-03-13T08:41:23;5.80;;;2.87;;
3405;SDS011;10008;48.682;9.016;2023-03-13T08:43:52;5.30;;;2.70;;
3405;SDS011;10008;48.682;9.016;2023-03-13T08:46:21;3.53;;;2.60;;
3405;SDS011;10008;48.682;9.016;2023-03-13T08:48:51;4.10;;;2.50;;
3405;SDS011;10008;48.682;9.016;2023-03-13T08:51:18;4.03;;;2.77;;
3405;SDS011;10008;48.682;9.016;2023-03-13T08:53:46;4.00;;;2.90;;
3405;SDS011;10008;48.682;9.016;2023-03-13T08:56:14;4.97;;;3.00;;
3405;SDS011;10008;48.682;9.016;2023-03-13T08:58:41;5.13;;;2.80;;
3405;SDS011;10008;48.682;9.016;2023-03-13T09:01:09;5.33;;;2.70;;
3405;SDS011;10008;48.682;9.016;2023-03-13T09:03:37;4.93;;;3.40;;
3405;SDS011;10008;48.682;9.016;2023-03-13T09:06:03;5.60;;;3.30;;
3405;SDS011;10008;48.682;9.016;2023-03-13T09:08:30;5.37;;;3.50;;
3405;SDS011;10008;48.682;9.016;2023-03-13T09:11:01;5.50;;;3.90;;
3405;SDS011;10008;48.682;9.016;2023-03-13T09:13:30;4.40;;;3.20;;
3405;SDS011;10008;48.682;9.016;2023-03-13T09:15:58;9.80;;;5.50;;
3405;SDS011;10008;48.682;9.016;2023-03-13T09:18:26;4.30;;;3.03;;
3405;SDS011;10008;48.682;9.016;2023-03-13T09:20:53;4.37;;;3.30;;
3405;SDS011;10008;48.682;9.016;2023-03-13T09:23:19;4.10;;;3.00;;
3405;SDS011;10008;48.682;9.016;2023-03-13T09:25:45;4.87;;;3.00;;
3405;SDS011;10008;48.682;9.016;2023-03-13T09:28:12;5.13;;;3.20;;
3405;SDS011;10008;48.682;9.016;2023-03-13T09:30:37;6.63;;;3.77;;
3405;SDS011;10008;48.682;9.016;2023-03-13T09:33:03;5.57;;;3.80;;
3405;SDS011;10008;48.682;9.016;2023-03-13T09:35:29;5.20;;;3.70;;
3405;SDS011;10008;48.682;9.016;2023-03-13T09:37:55;7.03;;;3.70;;
3405;SDS011;10008;48.682;9.016;2023-03-13T09:40:21;5.10;;;3.90;;
3405;SDS011;10008;48.682;9.016;2023-03-13T09:42:54;6.90;;;4.13;;
3405;SDS011;10008;48.682;9.016;2023-03-13T09:45:33;7.63;;;5.00;;
3405;SDS011;10008;48.682;9.016;2023-03-13T09:50:35;7.30;;;6.70;;
3405;SDS011;10008;48.682;9.016;2023-03-13T09:55:58;8.07;;;7.30;;
3405;SDS011;10008;48.682;9.016;2023-03-13T09:58:26;8.33;;;7.57;;
3405;SDS011;10008;48.682;9.016;2023-03-13T10:00:57;8.10;;;7.40;;
3405;SDS011;10008;48.682;9.016;2023-03-13T10:03:34;8.70;;;7.93;;
3405;SDS011;10008;48.682;9.016;2023-03-13T10:06:13;9.63;;;8.53;;
3405;SDS011;10008;48.682;9.016;2023-03-13T10:08:42;9.53;;;8.73;;
3405;SDS011;10008;48.682;9.016;2023-03-13T10:11:10;9.67;;;8.77;;
3405;SDS011;10008;48.682;9.016;2023-03-13T10:14:02;9.80;;;9.00;;
3405;SDS011;10008;48.682;9.016;2023-03-13T10:16:37;9.90;;;9.10;;
3405;SDS011;10008;48.682;9.016;2023-03-13T10:19:39;9.70;;;8.90;;
3405;SDS011;10008;48.682;9.016;2023-03-13T10:22:17;9.80;;;8.97;;
3405;SDS011;10008;48.682;9.016;2023-03-13T10:27:20;10.67;;;9.77;;
3405;SDS011;10008;48.682;9.016;2023-03-13T10:29:46;11.40;;;10.30;;
3405;SDS011;10008;48.682;9.016;2023-03-13T10:32:13;11.23;;;10.17;;
3405;SDS011;10008;48.682;9.016;2023-03-13T10:37:18;10.80;;;9.90;;
3405;SDS011;10008;48.682;9.016;2023-03-13T10:39:45;10.70;;;9.70;;
3405;SDS011;10008;48.682;9.016;2023-03-13T10:42:27;11.40;;;10.30;;
3405;SDS011;10008;48.682;9.016;2023-03-13T10:44:58;11.33;;;10.37;;
3405;SDS011;10008;48.682;9.016;2023-03-13T10:47:25;10.60;;;9.70;;
3405;SDS011;10008;48.682;9.016;2023-03-13T10:49:55;10.53;;;9.57;;
3405;SDS011;10008;48.682;9.016;2023-03-13T10:52:33;11.00;;;10.10;;
3405;SDS011;10008;48.682;9.016;2023-03-13T10:55:04;10.77;;;9.70;;
3405;SDS011;10008;48.682;9.016;2023-03-13T10:57:31;10.70;;;9.80;;
3405;SDS011;10008;48.682;9.016;2023-03-13T10:59:59;10.40;;;9.50;;
3405;SDS011;10008;48.682;9.016;2023-03-13T11:03:13;11.00;;;10.10;;
3405;SDS011;10008;48.682;9.016;2023-03-13T11:05:42;13.87;;;11.10;;
3405;SDS011;10008;48.682;9.016;2023-03-13T11:08:19;11.27;;;10.37;;
3405;SDS011;10008;48.682;9.016;2023-03-13T11:10:57;11.70;;;10.50;;
3405;SDS011;10008;48.682;9.016;2023-03-13T11:13:29;11.43;;;10.47;;
3405;SDS011;10008;48.682;9.016;2023-03-13T11:21:54;11.80;;;10.80;;
3405;SDS011;10008;48.682;9.016;2023-03-13T11:27:17;11.77;;;10.63;;
3405;SDS011;10008;48.682;9.016;2023-03-13T11:29:59;12.03;;;11.03;;
3405;SDS011;10008;48.682;9.016;2023-03-13T11:32:55;12.23;;;11.20;;
3405;SDS011;10008;48.682;9.016;2023-03-13T11:35:31;12.03;;;11.03;;
3405;SDS011;10008;48.682;9.016;2023-03-13T11:38:26;12.43;;;11.43;;
3405;SDS011;10008;48.682;9.016;2023-03-13T11:49:59;12.23;;;11.23;;
3405;SDS011;10008;48.682;9.016;2023-03-13T11:52:52;12.53;;;11.33;;
3405;SDS011;10008;48.682;9.016;2023-03-13T12:00:43;12.80;;;11.70;;
3405;SDS011;10008;48.682;9.016;2023-03-13T12:06:30;12.50;;;11.53;;
3405;SDS011;10008;48.682;9.016;2023-03-13T12:08:57;11.97;;;10.97;;
3405;SDS011;10008;48.682;9.016;2023-03-13T12:12:04;12.50;;;11.50;;
3405;SDS011;10008;48.682;9.016;2023-03-13T12:14:40;12.33;;;11.23;;
3405;SDS011;10008;48.682;9.016;2023-03-13T12:17:25;12.50;;;11.40;;
3405;SDS011;10008;48.682;9.016;2023-03-13T12:19:58;12.80;;;11.60;;
3405;SDS011;10008;48.682;9.016;2023-03-13T12:22:41;12.67;;;11.47;;
3405;SDS011;10008;48.682;9.016;2023-03-13T12:27:50;12.60;;;11.40;;
3405;SDS011;10008;48.682;9.016;2023-03-13T12:36:31;13.30;;;12.00;;
3405;SDS011;10008;48.682;9.016;2023-03-13T12:42:00;13.43;;;12.20;;
3405;SDS011;10008;48.682;9.016;2023-03-13T12:44:48;15.10;;;12.93;;
3405;SDS011;10008;48.682;9.016;2023-03-13T12:52:27;13.07;;;11.97;;
3405;SDS011;10008;48.682;9.016;2023-03-13T13:00:40;12.90;;;11.70;;
3405;SDS011;10008;48.682;9.016;2023-03-13T13:03:15;13.13;;;12.00;;
3405;SDS011;10008;48.682;9.016;2023-03-13T13:06:22;12.83;;;11.73;;
3405;SDS011;10008;48.682;9.016;2023-03-13T13:08:41;12.30;;;11.30;;
3405;SDS011;10008;48.682;9.016;2023-03-13T13:14:05;13.17;;;12.07;;
3405;SDS011;10008;48.682;9.016;2023-03-13T13:16:55;12.83;;;11.80;;
3405;SDS011;10008;48.682;9.016;2023-03-13T13:24:54;12.40;;;11.30;;
3405;SDS011;10008;48.682;9.016;2023-03-13T13:29:57;13.17;;;11.93;;
3405;SDS011;10008;48.682;9.016;2023-03-13T13:32:34;12.57;;;11.60;;
3405;SDS011;10008;48.682;9.016;2023-03-13T13:37:44;12.60;;;11.50;;
3405;SDS011;10008;48.682;9.016;2023-03-13T13:40:26;12.77;;;11.67;;
3405;SDS011;10008;48.682;9.016;2023-03-13T13:42:59;12.80;;;11.80;;
3405;SDS011;10008;48.682;9.016;2023-03-13T13:45:29;12.60;;;11.50;;
3405;SDS011;10008;48.682;9.016;2023-03-13T13:48:12;12.73;;;11.63;;
3405;SDS011;10008;48.682;9.016;2023-03-13T14:01:42;13.33;;;12.17;;
3405;SDS011;10008;48.682;9.016;2023-03-13T14:04:16;13.03;;;11.90;;
3405;SDS011;10008;48.682;9.016;2023-03-13T14:06:51;13.30;;;11.80;;
3405;SDS011;10008;48.682;9.016;2023-03-13T14:09:30;13.30;;;12.00;;
3405;SDS011;10008;48.682;9.016;2023-03-13T14:12:01;13.57;;;12.40;;
3405;SDS011;10008;48.682;9.016;2023-03-13T14:17:41;12.73;;;11.30;;
3405;SDS011;10008;48.682;9.016;2023-03-13T14:20:24;13.53;;;12.23;;
3405;SDS011;10008;48.682;9.016;2023-03-13T14:23:02;13.00;;;11.90;;
3405;SDS011;10008;48.682;9.016;2023-03-13T14:25:46;13.17;;;12.07;;
3405;SDS011;10008;48.682;9.016;2023-03-13T14:28:18;13.00;;;11.90;;
3405;SDS011;10008;48.682;9.016;2023-03-13T14:30:50;13.53;;;12.37;;
3405;SDS011;10008;48.682;9.016;2023-03-13T14:33:17;13.43;;;12.33;;
3405;SDS011;10008;48.682;9.016;2023-03-13T14:35:44;13.03;;;11.93;;
3405;SDS011;10008;48.682;9.016;2023-03-13T14:38:15;13.40;;;12.30;;
3405;SDS011;10008;48.682;9.016;2023-03-13T14:40:45;13.60;;;12.47;;
3405;SDS011;10008;48.682;9.016;2023-03-13T14:46:39;13.27;;;12.17;;
3405;SDS011;10008;48.682;9.016;2023-03-13T14:49:05;14.63;;;13.33;;
3405;SDS011;10008;48.682;9.016;2023-03-13T14:51:40;13.53;;;12.23;;
3405;SDS011;10008;48.682;9.016;2023-03-13T14:54:22;13.90;;;12.80;;
3405;SDS011;10008;48.682;9.016;2023-03-13T14:57:01;13.40;;;12.30;;
3405;SDS011;10008;48.682;9.016;2023-03-13T14:59:42;13.70;;;12.50;;
3405;SDS011;10008;48.682;9.016;2023-03-13T15:02:15;14.67;;;13.37;;
3405;SDS011;10008;48.682;9.016;2023-03-13T15:05:01;13.60;;;12.50;;
3405;SDS011;10008;48.682;9.016;2023-03-13T15:07:44;12.50;;;11.50;;
3405;SDS011;10008;48.682;9.016;2023-03-13T15:10:21;12.83;;;11.50;;
3405;SDS011;10008;48.682;9.016;2023-03-13T15:13:14;13.30;;;12.10;;
3405;SDS011;10008;48.682;9.016;2023-03-13T15:15:49;13.17;;;11.97;;
3405;SDS011;10008;48.682;9.016;2023-03-13T15:18:21;13.60;;;12.40;;
3405;SDS011;10008;48.682;9.016;2023-03-13T15:20:52;12.97;;;11.87;;
3405;SDS011;10008;48.682;9.016;2023-03-13T15:23:23;13.27;;;12.17;;
3405;SDS011;10008;48.682;9.016;2023-03-13T15:25:49;13.00;;;11.90;;
3405;SDS011;10008;48.682;9.016;2023-03-13T15:28:22;13.40;;;12.30;;
3405;SDS011;10008;48.682;9.016;2023-03-13T15:30:49;13.77;;;12.50;;
3405;SDS011;10008;48.682;9.016;2023-03-13T15:33:16;13.20;;;11.97;;
3405;SDS011;10008;48.682;9.016;2023-03-13T15:35:44;13.13;;;11.93;;
3405;SDS011;10008;48.682;9.016;2023-03-13T15:38:17;13.57;;;12.37;;
3405;SDS011;10008;48.682;9.016;2023-03-13T15:40:44;12.90;;;11.80;;
3405;SDS011;10008;48.682;9.016;2023-03-13T15:43:10;12.70;;;11.60;;
3405;SDS011;10008;48.682;9.016;2023-03-13T15:45:37;12.03;;;10.93;;
3405;SDS011;10008;48.682;9.016;2023-03-13T15:48:10;12.63;;;11.53;;
3405;SDS011;10008;48.682;9.016;2023-03-13T15:50:40;13.13;;;12.03;;
3405;SDS011;10008;48.682;9.016;2023-03-13T15:53:25;13.30;;;12.00;;
3405;SDS011;10008;48.682;9.016;2023-03-13T15:55:53;12.93;;;11.93;;
3405;SDS011;10008;48.682;9.016;2023-03-13T15:58:20;13.50;;;12.27;;
3405;SDS011;10008;48.682;9.016;2023-03-13T16:00:46;13.00;;;11.80;;
3405;SDS011;10008;48.682;9.016;2023-03-13T16:03:16;12.93;;;11.80;;
3405;SDS011;10008;48.682;9.016;2023-03-13T16:05:50;12.67;;;11.57;;
3405;SDS011;10008;48.682;9.016;2023-03-13T16:08:18;12.40;;;11.30;;
3405;SDS011;10008;48.682;9.016;2023-03-13T16:10:46;12.80;;;11.60;;
3405;SDS011;10008;48.682;9.016;2023-03-13T16:13:12;12.67;;;11.57;;
3405;SDS011;10008;48.682;9.016;2023-03-13T16:15:38;12.70;;;11.60;;
3405;SDS011;10008;48.682;9.016;2023-03-13T16:18:04;12.70;;;11.60;;
3405;SDS011;10008;48.682;9.016;2023-03-13T16:20:31;12.80;;;11.60;;
3405;SDS011;10008;48.682;9.016;2023-03-13T16:22:58;12.53;;;11.53;;
3405;SDS011;10008;48.682;9.016;2023-03-13T16:25:28;13.10;;;11.77;;
3405;SDS011;10008;48.682;9.016;2023-03-13T16:27:55;12.57;;;11.30;;
3405;SDS011;10008;48.682;9.016;2023-03-13T16:30:23;14.40;;;13.20;;
3405;SDS011;10008;48.682;9.016;2023-03-13T16:32:50;13.53;;;12.30;;
3405;SDS011;10008;48.682;9.016;2023-03-13T16:35:16;12.73;;;11.73;;
3405;SDS011;10008;48.682;9.016;2023-03-13T16:37:42;13.40;;;12.30;;
3405;SDS011;10008;48.682;9.016;2023-03-13T16:42:42;12.83;;;11.83;;
3405;SDS011;10008;48.682;9.016;2023-03-13T16:45:08;13.90;;;12.70;;
3405;SDS011;10008;48.682;9.016;2023-03-13T16:47:35;15.00;;;13.50;;
3405;SDS011;10008;48.682;9.016;2023-03-13T16:50:01;15.00;;;13.60;;
3405;SDS011;10008;48.682;9.016;2023-03-13T16:52:36;18.50;;;16.60;;
3405;SDS011;10008;48.682;9.016;2023-03-13T16:55:02;19.50;;;16.00;;
3405;SDS011;10008;48.682;9.016;2023-03-13T16:57:28;13.60;;;12.50;;